createdAt,value
2023-05-04T00:02:02.315Z,20.30
2023-05-04T00:07:05.236Z,20.30
2023-05-04T00:12:08.320Z,20.30
2023-05-04T00:17:12.767Z,20.30
2023-05-04T00:22:15.825Z,20.30
2023-05-04T00:27:18.781Z,20.30
2023-05-04T00:32:23.138Z,20.30
2023-05-04T00:37:26.229Z,20.30
2023-05-04T00:42:29.133Z,20.20
2023-05-04T00:47:33.531Z,20.30
2023-05-04T00:52:37.741Z,20.20
2023-05-04T00:57:41.685Z,20.20
2023-05-04T01:02:46.207Z,20.20
2023-05-04T01:07:57.114Z,20.20
2023-05-04T01:13:05.327Z,20.20
2023-05-04T01:18:10.261Z,20.20
2023-05-04T01:23:14.668Z,20.20
2023-05-04T01:28:21.909Z,20.20
2023-05-04T01:33:25.182Z,20.20
2023-05-04T01:38:29.717Z,20.20
2023-05-04T01:43:32.637Z,20.20
2023-05-04T01:48:35.589Z,20.10
2023-05-04T01:53:39.860Z,20.10
2023-05-04T01:58:42.836Z,20.10
2023-05-04T02:03:45.868Z,20.10
2023-05-04T02:08:51.055Z,20.10
2023-05-04T02:13:53.956Z,20.10
2023-05-04T02:18:56.906Z,20.10
2023-05-04T02:24:01.159Z,20.10
2023-05-04T02:29:05.761Z,20.10
2023-05-04T02:34:08.706Z,20.10
2023-05-04T02:39:13.091Z,20.10
2023-05-04T02:44:16.077Z,20.00
2023-05-04T02:49:18.992Z,20.00
2023-05-04T02:54:23.259Z,20.00
2023-05-04T02:59:26.180Z,20.00
2023-05-04T03:04:29.104Z,20.00
2023-05-04T03:09:33.409Z,20.00
2023-05-04T03:14:36.294Z,20.00
2023-05-04T03:19:39.185Z,20.00
2023-05-04T03:24:43.426Z,20.00
2023-05-04T03:29:46.315Z,20.00
2023-05-04T03:34:49.203Z,20.00
2023-05-04T03:39:53.457Z,19.90
2023-05-04T03:44:56.369Z,20.00
2023-05-04T03:49:59.280Z,20.00
2023-05-04T03:55:03.540Z,20.00
2023-05-04T04:00:07.668Z,20.00
2023-05-04T04:05:10.838Z,19.90
2023-05-04T04:10:15.126Z,20.00
2023-05-04T04:15:18.209Z,20.00
2023-05-04T04:20:21.174Z,20.00
2023-05-04T04:25:25.449Z,20.00
2023-05-04T04:30:28.333Z,20.00
2023-05-04T04:35:32.697Z,20.00
2023-05-04T04:40:37.031Z,20.10
2023-05-04T04:45:41.227Z,20.20
2023-05-04T04:50:44.108Z,20.30
2023-05-04T04:55:48.841Z,20.50
2023-05-04T05:00:52.166Z,20.60
2023-05-04T05:05:55.700Z,20.70
2023-05-04T05:10:59.948Z,20.80
2023-05-04T05:16:02.935Z,20.90
2023-05-04T05:21:07.325Z,21.10
2023-05-04T05:26:11.803Z,21.20
2023-05-04T05:31:14.758Z,21.30
2023-05-04T05:36:17.935Z,21.30
2023-05-04T05:41:22.602Z,21.50
2023-05-04T05:46:25.893Z,21.60
2023-05-04T05:51:28.869Z,21.70
2023-05-04T05:56:33.235Z,21.80
2023-05-04T06:01:36.151Z,21.90
2023-05-04T06:06:39.064Z,22.10
2023-05-04T06:11:43.332Z,22.10
2023-05-04T06:16:46.383Z,22.20
2023-05-04T06:21:50.403Z,22.30
2023-05-04T06:26:55.179Z,22.30
2023-05-04T06:31:58.180Z,22.30
2023-05-04T06:37:01.137Z,22.40
2023-05-04T06:42:05.434Z,22.50
2023-05-04T06:47:08.474Z,22.50
2023-05-04T06:52:11.528Z,22.50
2023-05-04T06:57:15.833Z,22.60
2023-05-04T07:02:18.767Z,22.60
2023-05-04T07:07:21.772Z,22.60
2023-05-04T07:12:26.235Z,22.60
2023-05-04T07:17:29.352Z,22.50
2023-05-04T07:22:32.513Z,22.50
2023-05-04T07:27:36.828Z,22.50
2023-05-04T07:32:39.798Z,22.40
2023-05-04T07:37:42.779Z,22.20
2023-05-04T07:42:47.109Z,22.20
2023-05-04T07:47:50.657Z,22.10
2023-05-04T07:52:54.985Z,22.10
2023-05-04T07:57:59.214Z,22.00
2023-05-04T08:03:02.132Z,21.90
2023-05-04T08:08:05.184Z,21.90
2023-05-04T08:13:09.621Z,21.90
2023-05-04T08:18:12.631Z,21.80
2023-05-04T08:23:15.618Z,21.80
2023-05-04T08:28:19.871Z,21.70
2023-05-04T08:33:22.802Z,21.70
2023-05-04T08:38:25.887Z,21.70
2023-05-04T08:43:30.931Z,21.70
2023-05-04T08:48:34.660Z,21.70
2023-05-04T08:53:40.699Z,21.70
2023-05-04T08:58:50.950Z,21.60
2023-05-04T09:03:54.561Z,21.60
2023-05-04T09:08:57.592Z,21.60
2023-05-04T09:14:01.909Z,21.60
2023-05-04T09:19:06.127Z,21.60
2023-05-04T09:24:09.156Z,21.50
2023-05-04T09:29:14.504Z,21.50
2023-05-04T09:34:18.529Z,21.50
2023-05-04T09:39:21.797Z,21.50
2023-05-04T09:44:29.640Z,21.50
2023-05-04T09:49:34.006Z,21.50
2023-05-04T09:54:38.940Z,21.50
2023-05-04T09:59:43.477Z,21.50
2023-05-04T10:04:46.988Z,21.50
2023-05-04T10:09:51.214Z,21.50
2023-05-04T10:14:55.588Z,21.50
2023-05-04T10:20:18.358Z,21.50
2023-05-04T10:25:37.683Z,21.50
2023-05-04T10:30:42.127Z,21.50
2023-05-04T10:35:52.913Z,21.50
2023-05-04T10:40:56.365Z,21.50
2023-05-04T10:46:02.407Z,21.50
2023-05-04T10:51:05.577Z,21.50
2023-05-04T10:56:09.030Z,21.50
2023-05-04T11:01:14.125Z,21.50
2023-05-04T11:06:19.649Z,21.50
2023-05-04T11:11:25.894Z,21.50
2023-05-04T11:16:30.240Z,21.60
2023-05-04T11:21:33.195Z,21.60
2023-05-04T11:26:47.096Z,21.60
2023-05-04T11:31:56.683Z,21.60
2023-05-04T11:37:00.139Z,21.60
2023-05-04T11:42:08.184Z,21.60
2023-05-04T11:47:14.132Z,21.60
2023-05-04T11:52:17.235Z,21.60
2023-05-04T11:57:23.449Z,21.60
2023-05-04T12:02:28.014Z,21.70
2023-05-04T12:07:30.973Z,21.60
2023-05-04T12:12:36.983Z,21.70
2023-05-04T12:17:45.457Z,21.70
2023-05-04T12:22:49.109Z,21.60
2023-05-04T12:27:52.419Z,21.70
2023-05-04T12:32:56.799Z,21.70
2023-05-04T12:37:59.701Z,21.70
2023-05-04T12:43:03.227Z,21.70
2023-05-04T12:48:07.712Z,21.70
2023-05-04T12:53:10.766Z,21.70
2023-05-04T12:58:13.693Z,21.70
2023-05-04T13:03:18.733Z,21.70
2023-05-04T13:08:21.798Z,21.70
2023-05-04T13:13:28.620Z,21.70
2023-05-04T13:18:33.006Z,21.70
2023-05-04T13:23:36.270Z,21.70
2023-05-04T13:28:39.566Z,21.70
2023-05-04T13:33:45.367Z,21.70
2023-05-04T13:38:48.481Z,21.70
2023-05-04T13:43:51.375Z,21.70
2023-05-04T13:48:57.080Z,21.70
2023-05-04T13:54:02.440Z,21.70
2023-05-04T13:59:05.729Z,21.70
2023-05-04T14:04:10.003Z,21.70
2023-05-04T14:09:12.926Z,21.70
2023-05-04T14:14:15.834Z,21.70
2023-05-04T14:19:20.148Z,21.70
2023-05-04T14:24:24.673Z,21.70
2023-05-04T14:29:28.592Z,21.70
2023-05-04T14:34:33.247Z,21.70
2023-05-04T14:39:36.611Z,21.70
2023-05-04T14:44:39.539Z,21.70
2023-05-04T14:49:43.807Z,21.70
2023-05-04T14:54:47.220Z,21.80
2023-05-04T14:59:50.238Z,21.70
2023-05-04T15:04:54.530Z,21.80
2023-05-04T15:09:57.432Z,21.80
2023-05-04T15:15:01.395Z,21.80
2023-05-04T15:20:06.511Z,21.80
2023-05-04T15:25:09.849Z,21.80
2023-05-04T15:30:13.374Z,21.80
2023-05-04T15:35:17.665Z,21.80
2023-05-04T15:40:20.588Z,21.90
2023-05-04T15:45:23.938Z,21.90
2023-05-04T15:50:28.227Z,21.90
2023-05-04T15:55:31.198Z,21.90
2023-05-04T16:00:34.813Z,21.90
2023-05-04T16:05:39.334Z,21.90
2023-05-04T16:10:42.213Z,21.90
2023-05-04T16:15:45.280Z,21.90
2023-05-04T16:20:49.593Z,21.90
2023-05-04T16:25:52.615Z,21.90
2023-05-04T16:30:55.635Z,21.90
2023-05-04T16:36:00.081Z,21.90
2023-05-04T16:41:03.128Z,22.00
2023-05-04T16:46:06.251Z,21.90
2023-05-04T16:51:10.600Z,21.90
2023-05-04T16:56:18.072Z,21.90
2023-05-04T17:01:21.003Z,21.90
2023-05-04T17:06:25.463Z,21.90
2023-05-04T17:11:28.410Z,21.90
2023-05-04T17:16:31.514Z,21.90
2023-05-04T17:21:35.812Z,21.90
2023-05-04T17:26:38.806Z,21.90
2023-05-04T17:31:42.064Z,21.80
2023-05-04T17:36:47.155Z,21.80
2023-05-04T17:41:51.420Z,21.80
2023-05-04T17:46:54.637Z,21.80
2023-05-04T17:51:59.576Z,21.80
2023-05-04T17:57:02.471Z,21.70
2023-05-04T18:02:05.728Z,21.70
2023-05-04T18:07:10.026Z,21.70
2023-05-04T18:12:12.920Z,21.70
2023-05-04T18:17:15.832Z,21.70
2023-05-04T18:22:20.253Z,21.70
2023-05-04T18:27:23.132Z,21.70
2023-05-04T18:32:26.061Z,21.60
2023-05-04T18:37:30.984Z,21.60
2023-05-04T18:42:34.140Z,21.60
2023-05-04T18:47:37.101Z,21.60
2023-05-04T18:52:41.386Z,21.60
2023-05-04T18:57:44.431Z,21.60
2023-05-04T19:02:47.446Z,21.60
2023-05-04T19:07:52.090Z,21.50
2023-05-04T19:12:55.152Z,21.50
2023-05-04T19:17:58.132Z,21.40
2023-05-04T19:23:02.446Z,21.50
2023-05-04T19:28:08.791Z,21.40
2023-05-04T19:33:11.841Z,21.40
2023-05-04T19:38:16.278Z,21.40
2023-05-04T19:43:19.363Z,21.40
2023-05-04T19:48:22.299Z,21.40
2023-05-04T19:53:26.793Z,21.40
2023-05-04T19:58:30.895Z,21.40
2023-05-04T20:03:33.855Z,21.30
2023-05-04T20:08:38.130Z,21.30
2023-05-04T20:13:42.547Z,21.30
2023-05-04T20:18:45.591Z,21.30
2023-05-04T20:23:49.861Z,21.30
2023-05-04T20:28:52.793Z,21.30
2023-05-04T20:33:55.672Z,21.30
2023-05-04T20:39:00.311Z,21.30
2023-05-04T20:44:03.356Z,21.30
2023-05-04T20:49:06.252Z,21.20
2023-05-04T20:54:10.516Z,21.10
2023-05-04T20:59:13.417Z,21.00
2023-05-04T21:04:16.407Z,20.90
2023-05-04T21:09:21.540Z,20.90
2023-05-04T21:14:24.795Z,21.00
2023-05-04T21:19:27.686Z,21.00
2023-05-04T21:24:32.114Z,21.00
2023-05-04T21:29:35.011Z,21.00
2023-05-04T21:34:37.915Z,21.00
2023-05-04T21:39:42.646Z,21.00
2023-05-04T21:44:45.545Z,21.00
2023-05-04T21:49:48.455Z,21.00
2023-05-04T21:54:52.983Z,21.00
2023-05-04T21:59:55.903Z,21.00
2023-05-04T22:04:58.832Z,21.00
2023-05-04T22:10:03.236Z,21.00
2023-05-04T22:15:07.265Z,21.00
2023-05-04T22:20:11.276Z,21.00
2023-05-04T22:25:15.594Z,21.00
2023-05-04T22:30:18.639Z,21.00
2023-05-04T22:35:22.231Z,21.00
2023-05-04T22:40:26.846Z,21.00
2023-05-04T22:45:29.796Z,21.00
2023-05-04T22:50:32.911Z,21.00
2023-05-04T22:55:37.310Z,21.00
2023-05-04T23:00:40.481Z,21.00
2023-05-04T23:05:43.381Z,21.00
2023-05-04T23:10:48.450Z,21.00
2023-05-04T23:15:51.860Z,21.00
2023-05-04T23:20:54.835Z,21.00
2023-05-04T23:25:59.120Z,21.00
2023-05-04T23:31:02.475Z,21.00
2023-05-04T23:36:05.731Z,21.00
2023-05-04T23:41:09.976Z,21.00
2023-05-04T23:46:13.072Z,21.00
2023-05-04T23:51:16.131Z,20.90
2023-05-04T23:56:20.337Z,20.90
